Time;durP1;ratioP1;P1;durP2;ratioP2;P2;SDS_P1;SDS_P2;PMS_P1;PMS_P2;Temp;Humidity;BMP_temperature;BMP_pressure;BME280_temperature;BME280_humidity;BME280_pressure;Samples;Min_cycle;Max_cycle;Signal;HPM_P1;HPM_P2
2022/04/15 00:01:12;;;;;;;4.75;3.15;;;9.00;99.90;;;;;;5025447;28;20054;-67
2022/04/15 00:03:39;;;;;;;7.72;3.45;;;9.10;99.90;;;;;;5037654;28;20524;-68
2022/04/15 00:06:08;;;;;;;7.20;3.28;;;9.10;99.90;;;;;;5022944;28;20065;-67
2022/04/15 00:08:34;;;;;;;5.78;3.28;;;9.10;99.90;;;;;;5042326;28;20052;-68
2022/04/15 00:11:01;;;;;;;10.40;3.33;;;9.00;99.90;;;;;;5027906;28;20049;-68
2022/04/15 00:13:29;;;;;;;6.93;3.33;;;9.10;99.90;;;;;;5024847;28;20037;-68
2022/04/15 00:15:55;;;;;;;4.63;3.40;;;9.10;99.90;;;;;;5028953;28;20055;-67
2022/04/15 00:18:21;;;;;;;6.18;3.60;;;9.10;99.90;;;;;;5034757;28;20052;-68
2022/04/15 00:20:47;;;;;;;9.13;3.30;;;9.10;99.90;;;;;;5031062;28;20037;-68
2022/04/15 00:23:12;;;;;;;5.65;4.10;;;9.10;99.90;;;;;;5031906;28;20133;-68
2022/04/15 00:25:38;;;;;;;6.95;3.00;;;9.00;99.90;;;;;;5030511;28;20049;-67
2022/04/15 00:28:04;;;;;;;6.70;2.95;;;8.90;99.90;;;;;;5024389;28;20161;-67
2022/04/15 00:30:29;;;;;;;6.65;3.28;;;8.80;99.90;;;;;;5023350;28;20038;-67
2022/04/15 00:32:55;;;;;;;4.68;2.83;;;8.90;99.90;;;;;;5023629;28;20409;-68
2022/04/15 00:35:20;;;;;;;6.70;3.40;;;8.90;99.90;;;;;;5021683;28;20045;-68
2022/04/15 00:37:47;;;;;;;6.97;2.78;;;8.90;99.90;;;;;;5042788;28;20049;-67
2022/04/15 00:40:13;;;;;;;5.93;2.55;;;9.00;99.90;;;;;;5031978;28;20066;-67
2022/04/15 00:42:39;;;;;;;5.95;3.40;;;8.90;99.90;;;;;;5025799;28;20100;-68
2022/04/15 00:45:09;;;;;;;4.15;2.92;;;8.80;99.90;;;;;;5029581;28;20042;-67
2022/04/15 00:47:48;;;;;;;8.77;3.33;;;8.80;99.90;;;;;;5019683;28;20143;-67
2022/04/15 00:50:14;;;;;;;7.72;3.35;;;8.80;99.90;;;;;;5034789;28;20045;-68
2022/04/15 00:52:44;;;;;;;4.95;2.70;;;8.80;99.90;;;;;;5025210;28;20092;-68
2022/04/15 00:55:10;;;;;;;3.90;2.90;;;8.90;99.90;;;;;;5025455;28;20093;-68
2022/04/15 00:57:40;;;;;;;6.07;3.00;;;8.90;99.90;;;;;;5012952;28;20041;-68
2022/04/15 01:00:07;;;;;;;8.95;3.28;;;9.00;99.90;;;;;;5022011;28;20049;-67
2022/04/15 01:02:34;;;;;;;7.50;3.72;;;9.00;99.90;;;;;;5032614;28;20062;-68
2022/04/15 01:05:02;;;;;;;3.63;3.03;;;9.00;99.90;;;;;;5034794;28;20496;-68
2022/04/15 01:07:33;;;;;;;5.50;3.03;;;9.00;99.90;;;;;;5028798;28;20037;-67
2022/04/15 01:09:59;;;;;;;7.20;3.50;;;9.00;99.90;;;;;;5028061;28;20049;-68
2022/04/15 01:12:29;;;;;;;6.53;3.03;;;9.10;99.90;;;;;;5034774;28;20040;-67
2022/04/15 01:14:59;;;;;;;5.72;3.55;;;9.20;99.90;;;;;;5026302;28;20081;-68
2022/04/15 01:17:25;;;;;;;6.18;3.10;;;9.20;99.90;;;;;;5025135;28;20048;-67
2022/04/15 01:19:50;;;;;;;9.13;3.58;;;9.30;99.90;;;;;;5040219;28;20416;-68
2022/04/15 01:22:17;;;;;;;5.68;3.97;;;9.30;99.90;;;;;;5020753;28;20479;-68
2022/04/15 01:24:43;;;;;;;6.72;3.00;;;9.30;99.90;;;;;;5027971;28;20042;-68
2022/04/15 01:27:09;;;;;;;13.63;3.33;;;9.30;99.90;;;;;;5020101;28;20042;-68
2022/04/15 01:29:37;;;;;;;5.63;3.40;;;9.30;99.90;;;;;;5021344;28;20086;-68
2022/04/15 01:32:04;;;;;;;9.90;3.83;;;9.40;99.90;;;;;;5014540;28;20061;-68
2022/04/15 01:34:30;;;;;;;7.05;3.45;;;9.40;99.90;;;;;;5015924;28;20054;-67
2022/04/15 01:36:57;;;;;;;5.78;3.35;;;9.40;99.90;;;;;;5029054;28;20057;-68
2022/04/15 01:39:22;;;;;;;11.20;3.67;;;9.50;99.90;;;;;;5030726;28;20041;-67
2022/04/15 01:41:48;;;;;;;7.80;3.40;;;9.50;99.90;;;;;;5016911;28;20514;-68
2022/04/15 01:44:15;;;;;;;7.40;3.13;;;9.50;99.90;;;;;;5018684;28;20049;-67
2022/04/15 01:46:44;;;;;;;7.40;3.45;;;9.60;99.90;;;;;;5035777;28;20057;-68
2022/04/15 01:49:09;;;;;;;8.25;3.95;;;9.60;99.90;;;;;;5049252;28;20037;-68
2022/04/15 01:51:35;;;;;;;10.48;4.10;;;9.60;99.90;;;;;;5037448;28;20068;-68
2022/04/15 01:54:02;;;;;;;10.20;3.60;;;9.70;99.90;;;;;;5023986;28;20073;-68
2022/04/15 01:56:27;;;;;;;12.02;3.47;;;9.70;99.90;;;;;;5031912;28;20048;-68
2022/04/15 01:58:53;;;;;;;8.27;3.17;;;9.70;99.90;;;;;;5021688;28;20045;-68
2022/04/15 02:01:18;;;;;;;6.70;2.65;;;9.70;99.90;;;;;;5028238;28;20041;-68
2022/04/15 02:03:44;;;;;;;5.63;2.85;;;9.80;99.90;;;;;;5027401;28;20407;-67
2022/04/15 02:06:10;;;;;;;5.10;2.28;;;9.80;99.90;;;;;;5024116;28;20409;-68
2022/04/15 02:08:35;;;;;;;8.88;3.55;;;9.80;99.90;;;;;;5025086;28;20041;-68
2022/04/15 02:11:01;;;;;;;3.42;2.50;;;9.80;99.90;;;;;;5036068;28;20128;-68
2022/04/15 02:13:26;;;;;;;4.63;2.25;;;9.90;99.90;;;;;;5023072;28;20053;-68
2022/04/15 02:15:52;;;;;;;5.95;2.15;;;9.90;99.90;;;;;;5018156;28;20557;-68
2022/04/15 02:18:17;;;;;;;8.45;3.33;;;9.90;99.90;;;;;;5032002;28;20039;-68
2022/04/15 02:20:43;;;;;;;7.32;2.65;;;9.90;99.90;;;;;;5036109;28;20055;-68
2022/04/15 02:23:08;;;;;;;7.10;2.55;;;9.90;99.90;;;;;;5023611;28;20486;-68
2022/04/15 02:25:34;;;;;;;8.52;2.85;;;9.90;99.90;;;;;;5028382;28;20049;-68
2022/04/15 02:28:00;;;;;;;7.88;2.88;;;9.90;99.90;;;;;;5043004;28;20103;-68
2022/04/15 02:30:25;;;;;;;5.47;2.70;;;9.90;99.90;;;;;;5039059;28;20056;-68
2022/04/15 02:32:51;;;;;;;5.45;2.35;;;10.00;99.90;;;;;;5029562;28;20041;-68
2022/04/15 02:35:16;;;;;;;11.23;3.33;;;10.00;99.90;;;;;;5028078;28;20100;-68
2022/04/15 02:37:42;;;;;;;5.45;2.35;;;10.00;99.90;;;;;;5033532;28;20049;-68
2022/04/15 02:40:08;;;;;;;7.05;2.63;;;10.00;99.90;;;;;;5044858;28;20492;-68
2022/04/15 02:42:34;;;;;;;10.43;2.85;;;10.00;99.90;;;;;;5014749;28;20532;-68
2022/04/15 02:45:02;;;;;;;11.68;3.00;;;10.00;99.90;;;;;;5020814;28;20048;-68
2022/04/15 02:47:29;;;;;;;14.85;3.28;;;10.00;99.90;;;;;;5018046;28;20046;-67
2022/04/15 02:49:55;;;;;;;7.25;2.67;;;10.00;99.90;;;;;;5040170;28;20128;-67
2022/04/15 02:52:21;;;;;;;6.63;2.95;;;10.00;99.90;;;;;;5036853;28;20132;-68
2022/04/15 02:54:47;;;;;;;6.97;3.10;;;10.00;99.90;;;;;;5026051;28;20089;-67
2022/04/15 02:57:13;;;;;;;8.57;3.08;;;10.00;99.90;;;;;;5022916;28;20049;-68
2022/04/15 02:59:38;;;;;;;5.95;2.72;;;10.00;99.90;;;;;;5034753;28;20666;-67
2022/04/15 03:02:04;;;;;;;8.73;3.15;;;10.00;99.90;;;;;;5030786;28;20053;-68
2022/04/15 03:04:30;;;;;;;8.82;3.20;;;10.00;99.90;;;;;;5027624;28;20464;-68
2022/04/15 03:06:55;;;;;;;7.70;3.50;;;10.00;99.90;;;;;;5037279;28;20451;-68
2022/04/15 03:09:25;;;;;;;8.77;3.42;;;10.00;99.90;;;;;;5038991;28;20084;-68
2022/04/15 03:11:50;;;;;;;7.25;4.18;;;10.00;99.90;;;;;;5031080;28;20049;-68
2022/04/15 03:14:17;;;;;;;10.88;3.65;;;10.00;99.90;;;;;;5033328;28;20091;-68
2022/04/15 03:16:43;;;;;;;13.35;3.67;;;10.00;99.90;;;;;;5032116;28;20561;-68
2022/04/15 03:19:09;;;;;;;8.30;3.55;;;9.90;99.90;;;;;;5035367;28;20041;-68
2022/04/15 03:21:36;;;;;;;8.75;3.75;;;10.00;99.90;;;;;;5036120;28;20136;-68
2022/04/15 03:24:02;;;;;;;11.32;4.28;;;10.00;99.90;;;;;;5026540;28;20081;-67
2022/04/15 03:26:27;;;;;;;8.48;4.10;;;10.00;99.90;;;;;;5035285;28;20127;-68
2022/04/15 03:28:53;;;;;;;5.10;2.97;;;10.00;99.90;;;;;;5039129;28;20045;-68
2022/04/15 03:31:19;;;;;;;17.08;5.70;;;10.00;99.90;;;;;;5041558;28;20049;-68
2022/04/15 03:33:45;;;;;;;9.18;3.63;;;10.10;99.90;;;;;;5024372;28;20046;-68
2022/04/15 03:36:10;;;;;;;6.40;2.80;;;10.00;99.90;;;;;;5033055;28;20041;-68
2022/04/15 03:38:36;;;;;;;7.65;3.53;;;10.10;99.90;;;;;;5032292;28;20474;-67
2022/04/15 03:41:02;;;;;;;5.57;3.47;;;10.10;99.90;;;;;;5026061;28;20053;-68
2022/04/15 03:43:29;;;;;;;10.30;2.92;;;10.00;99.90;;;;;;5032275;28;20029;-68
2022/04/15 03:45:54;;;;;;;7.50;3.78;;;10.10;99.90;;;;;;5037383;28;20041;-67
2022/04/15 03:48:20;;;;;;;4.43;2.40;;;10.10;99.90;;;;;;5023182;28;20100;-67
2022/04/15 03:50:45;;;;;;;5.38;2.15;;;10.10;99.90;;;;;;5029617;28;20049;-68
2022/04/15 03:53:11;;;;;;;4.45;1.80;;;10.10;99.90;;;;;;5042234;28;20132;-68
2022/04/15 03:55:36;;;;;;;6.32;2.22;;;10.00;99.90;;;;;;5040649;28;20057;-67
2022/04/15 03:58:02;;;;;;;4.93;2.28;;;10.00;99.90;;;;;;5028010;28;20049;-68
2022/04/15 04:00:27;;;;;;;5.60;2.50;;;10.00;99.90;;;;;;5022575;28;20049;-67
2022/04/15 04:02:54;;;;;;;4.88;2.45;;;10.00;99.90;;;;;;5035124;28;20048;-68
2022/04/15 04:05:21;;;;;;;3.72;2.40;;;10.00;99.90;;;;;;5032799;28;20056;-68
2022/04/15 04:07:46;;;;;;;6.07;3.22;;;10.00;99.90;;;;;;5015531;28;20053;-68
2022/04/15 04:10:13;;;;;;;4.15;2.30;;;10.00;99.90;;;;;;5029521;28;20057;-68
2022/04/15 04:12:39;;;;;;;7.13;3.22;;;9.90;99.90;;;;;;5037694;28;20045;-68
2022/04/15 04:15:06;;;;;;;8.32;3.45;;;10.00;99.90;;;;;;5030204;28;20050;-68
2022/04/15 04:17:32;;;;;;;8.75;4.38;;;9.90;99.90;;;;;;5022772;28;20477;-67
2022/04/15 04:19:58;;;;;;;5.10;3.53;;;10.00;99.90;;;;;;5030676;28;20069;-68
2022/04/15 04:22:32;;;;;;;8.30;4.55;;;9.90;99.90;;;;;;5031808;28;20043;-67
2022/04/15 04:24:58;;;;;;;5.72;4.35;;;10.00;99.90;;;;;;5028174;28;20049;-67
2022/04/15 04:27:24;;;;;;;4.10;2.92;;;10.00;99.90;;;;;;5026353;28;20048;-67
2022/04/15 04:29:49;;;;;;;4.13;2.65;;;9.90;99.90;;;;;;5030330;28;20097;-67
2022/04/15 04:32:16;;;;;;;5.72;3.25;;;9.90;99.90;;;;;;5030772;28;20048;-68
2022/04/15 04:34:42;;;;;;;5.13;3.78;;;9.90;99.90;;;;;;5023087;28;20100;-68
2022/04/15 04:37:07;;;;;;;7.57;3.92;;;9.90;99.90;;;;;;5020594;28;20041;-68
2022/04/15 04:39:33;;;;;;;6.05;4.45;;;9.90;99.90;;;;;;5042142;28;20037;-67
2022/04/15 04:41:59;;;;;;;7.93;4.53;;;9.90;99.90;;;;;;5047747;28;20516;-67
2022/04/15 04:44:25;;;;;;;11.57;7.88;;;9.90;99.90;;;;;;5025123;28;20029;-67
2022/04/15 04:46:51;;;;;;;12.15;8.10;;;9.90;99.90;;;;;;5035075;28;20050;-68
2022/04/15 04:49:18;;;;;;;11.52;8.25;;;9.90;99.90;;;;;;5017169;28;20065;-68
2022/04/15 04:51:44;;;;;;;15.07;10.88;;;9.90;99.90;;;;;;5028640;28;20509;-67
2022/04/15 04:54:09;;;;;;;14.80;9.27;;;9.90;99.90;;;;;;5030347;28;20045;-67
2022/04/15 04:56:35;;;;;;;10.45;7.63;;;9.90;99.90;;;;;;5025399;28;20132;-68
2022/04/15 04:59:00;;;;;;;9.40;6.32;;;10.00;99.90;;;;;;5032920;28;20033;-68
2022/04/15 05:01:26;;;;;;;12.43;7.85;;;10.10;99.90;;;;;;5018698;28;20054;-68
2022/04/15 05:03:51;;;;;;;11.55;6.47;;;10.00;99.90;;;;;;5030584;28;20044;-67
2022/04/15 05:06:17;;;;;;;8.63;5.63;;;9.90;99.90;;;;;;5034184;28;20072;-68
2022/04/15 05:08:42;;;;;;;6.70;5.30;;;10.10;99.90;;;;;;5031174;28;20060;-68
2022/04/15 05:11:08;;;;;;;12.02;6.22;;;9.90;99.90;;;;;;5028039;28;20408;-68
2022/04/15 05:13:33;;;;;;;7.40;5.10;;;9.90;99.90;;;;;;5034767;28;20038;-68
2022/04/15 05:15:59;;;;;;;9.80;5.63;;;10.00;99.90;;;;;;5021020;28;20060;-68
2022/04/15 05:18:24;;;;;;;11.07;3.78;;;9.90;99.90;;;;;;5028602;28;20051;-68
2022/04/15 05:20:50;;;;;;;8.52;4.70;;;9.90;99.90;;;;;;5022025;28;20112;-68
2022/04/15 05:23:16;;;;;;;4.72;4.05;;;9.90;99.90;;;;;;5019271;28;20114;-68
2022/04/15 05:25:41;;;;;;;5.32;3.78;;;9.90;99.90;;;;;;5015286;28;20441;-67
2022/04/15 05:28:07;;;;;;;6.45;3.90;;;9.80;99.90;;;;;;5029227;28;20082;-68
2022/04/15 05:30:32;;;;;;;4.82;4.32;;;9.80;99.90;;;;;;5028985;28;20049;-67
2022/04/15 05:32:58;;;;;;;5.88;3.38;;;9.80;99.90;;;;;;5020028;28;20499;-68
2022/04/15 05:35:23;;;;;;;5.30;2.83;;;9.70;99.90;;;;;;5031961;28;20497;-67
2022/04/15 05:37:49;;;;;;;4.68;2.92;;;9.70;99.90;;;;;;5033503;28;20037;-67
2022/04/15 05:40:14;;;;;;;5.65;3.33;;;9.70;99.90;;;;;;5035012;28;20052;-67
2022/04/15 05:42:40;;;;;;;3.80;2.88;;;9.60;99.90;;;;;;5017489;28;20037;-67
2022/04/15 05:45:06;;;;;;;4.70;2.88;;;9.70;99.90;;;;;;5023639;28;20053;-67
2022/04/15 05:47:32;;;;;;;3.65;3.03;;;9.70;99.90;;;;;;5026747;28;20048;-67
2022/04/15 05:49:57;;;;;;;3.58;2.55;;;9.70;99.90;;;;;;5032780;28;20054;-68
2022/04/15 05:52:23;;;;;;;3.30;3.00;;;9.80;99.90;;;;;;5027474;28;20504;-68
2022/04/15 05:54:48;;;;;;;5.05;3.08;;;9.70;99.90;;;;;;5030221;28;20100;-67
2022/04/15 05:57:14;;;;;;;4.03;2.75;;;9.70;99.90;;;;;;5032959;28;20060;-67
2022/04/15 05:59:41;;;;;;;3.67;2.60;;;9.70;99.90;;;;;;5020908;28;20045;-68
2022/04/15 06:02:07;;;;;;;4.40;2.70;;;9.70;99.90;;;;;;5022750;28;20053;-67
2022/04/15 06:04:32;;;;;;;6.22;2.95;;;9.70;99.90;;;;;;5035527;28;20038;-67
2022/04/15 06:06:58;;;;;;;2.38;2.15;;;9.80;99.90;;;;;;5021089;28;20784;-68
2022/04/15 06:09:23;;;;;;;3.67;2.10;;;9.70;99.90;;;;;;5034086;28;20045;-67
2022/04/15 06:11:55;;;;;;;2.05;1.85;;;9.90;99.90;;;;;;5028811;28;20055;-67
2022/04/15 06:14:22;;;;;;;4.50;1.95;;;9.90;99.90;;;;;;5017210;28;20050;-67
2022/04/15 06:16:49;;;;;;;5.55;2.33;;;10.00;99.90;;;;;;5037676;28;20082;-67
2022/04/15 06:19:14;;;;;;;2.20;1.85;;;9.90;99.90;;;;;;5031234;28;20567;-67
2022/04/15 06:21:40;;;;;;;2.63;1.95;;;10.00;99.90;;;;;;5027593;28;20079;-68
2022/04/15 06:24:08;;;;;;;2.35;1.85;;;10.00;99.90;;;;;;5028422;28;20394;-68
2022/04/15 06:26:34;;;;;;;5.05;1.60;;;9.90;99.90;;;;;;5014875;28;20493;-68
2022/04/15 06:29:00;;;;;;;1.65;1.45;;;9.90;99.90;;;;;;5031006;28;20053;-68
2022/04/15 06:31:26;;;;;;;5.22;2.00;;;9.90;99.90;;;;;;5024366;28;20041;-68
2022/04/15 06:33:52;;;;;;;3.70;2.10;;;9.90;99.90;;;;;;5033700;28;20049;-68
2022/04/15 06:36:19;;;;;;;2.60;1.80;;;9.90;99.90;;;;;;5023217;28;20053;-68
2022/04/15 06:38:45;;;;;;;3.88;1.92;;;9.90;99.90;;;;;;5023306;28;20045;-68
2022/04/15 06:41:11;;;;;;;2.55;2.35;;;9.80;99.90;;;;;;5027315;28;20050;-68
2022/04/15 06:43:37;;;;;;;3.83;2.83;;;9.80;99.90;;;;;;5027436;28;20426;-68
2022/04/15 06:46:03;;;;;;;3.65;3.35;;;9.80;99.90;;;;;;5038853;28;20127;-68
2022/04/15 06:48:29;;;;;;;4.80;3.72;;;9.80;99.90;;;;;;5024777;28;20045;-68
2022/04/15 06:50:55;;;;;;;7.60;3.70;;;9.90;99.90;;;;;;5021807;28;20046;-68
2022/04/15 06:53:24;;;;;;;4.85;3.53;;;9.90;99.90;;;;;;5024212;28;20049;-68
2022/04/15 06:55:53;;;;;;;4.15;3.45;;;9.80;99.90;;;;;;5013353;28;20057;-68
2022/04/15 06:58:19;;;;;;;6.72;4.22;;;9.80;99.90;;;;;;5048248;28;20765;-69
2022/04/15 07:00:46;;;;;;;9.98;4.97;;;9.80;99.90;;;;;;5035574;28;20128;-68
2022/04/15 07:03:12;;;;;;;9.27;6.47;;;9.80;99.90;;;;;;5021827;28;20045;-69
2022/04/15 07:05:39;;;;;;;11.68;7.07;;;9.80;99.90;;;;;;5046827;28;20064;-70
2022/04/15 07:08:08;;;;;;;11.00;7.15;;;9.80;99.90;;;;;;5013725;28;20044;-68
2022/04/15 07:10:35;;;;;;;14.93;10.02;;;9.90;99.90;;;;;;5012522;28;20056;-68
2022/04/15 07:13:00;;;;;;;9.73;7.40;;;9.80;99.90;;;;;;5022200;28;20049;-68
2022/04/15 07:15:26;;;;;;;12.98;8.55;;;9.90;99.90;;;;;;5030626;28;20076;-68
2022/04/15 07:17:52;;;;;;;12.55;7.80;;;9.90;99.90;;;;;;5032064;28;20504;-68
2022/04/15 07:20:17;;;;;;;10.10;7.95;;;10.00;99.90;;;;;;5024277;28;20069;-67
2022/04/15 07:22:43;;;;;;;14.25;9.00;;;9.90;99.90;;;;;;5029353;28;20033;-68
2022/04/15 07:25:09;;;;;;;14.02;9.45;;;9.90;99.90;;;;;;5024316;28;20049;-67
2022/04/15 07:27:34;;;;;;;10.25;8.77;;;10.00;99.90;;;;;;5028431;28;20049;-68
2022/04/15 07:30:00;;;;;;;12.80;8.05;;;10.10;99.90;;;;;;5028386;28;20037;-67
2022/04/15 07:32:27;;;;;;;13.68;7.90;;;10.10;99.90;;;;;;5025502;28;20045;-67
2022/04/15 07:34:53;;;;;;;17.38;9.93;;;10.00;99.90;;;;;;5029136;28;20041;-67
2022/04/15 07:37:18;;;;;;;14.98;9.25;;;10.00;99.90;;;;;;5033086;28;20132;-67
2022/04/15 07:39:44;;;;;;;12.70;8.63;;;9.90;99.90;;;;;;5023831;28;20041;-68
2022/04/15 07:42:12;;;;;;;13.65;9.40;;;9.90;99.90;;;;;;5032358;28;20100;-67
2022/04/15 07:44:41;;;;;;;16.70;8.88;;;10.00;99.90;;;;;;5027662;28;20116;-68
2022/04/15 07:47:07;;;;;;;16.42;9.60;;;10.10;99.90;;;;;;5030970;28;20049;-68
2022/04/15 07:49:34;;;;;;;16.42;9.70;;;10.10;99.90;;;;;;5025551;28;20045;-67
2022/04/15 07:52:00;;;;;;;17.92;11.70;;;10.30;99.90;;;;;;5024763;28;20037;-67
2022/04/15 07:54:25;;;;;;;14.20;8.30;;;10.40;99.90;;;;;;5023696;28;20054;-67
2022/04/15 07:56:51;;;;;;;14.13;9.63;;;10.70;99.90;;;;;;5025933;28;20053;-68
2022/04/15 07:59:16;;;;;;;18.83;11.27;;;10.70;99.90;;;;;;5030563;28;20397;-67
2022/04/15 08:01:43;;;;;;;14.60;9.13;;;10.80;99.90;;;;;;5030367;28;20050;-67
2022/04/15 08:04:08;;;;;;;14.00;7.53;;;11.00;99.90;;;;;;5018791;28;20767;-68
2022/04/15 08:06:34;;;;;;;23.45;9.80;;;11.00;99.90;;;;;;5019670;28;20168;-68
2022/04/15 08:09:00;;;;;;;19.73;9.45;;;11.20;99.90;;;;;;5021692;28;20462;-68
2022/04/15 08:11:26;;;;;;;12.52;8.50;;;11.30;99.90;;;;;;5032102;28;20045;-67
2022/04/15 08:13:54;;;;;;;18.17;8.52;;;11.40;99.90;;;;;;5022202;28;20429;-68
2022/04/15 08:16:20;;;;;;;15.15;8.57;;;11.40;99.90;;;;;;5026107;28;20122;-67
2022/04/15 08:18:46;;;;;;;13.05;8.45;;;11.60;99.90;;;;;;5025213;28;20046;-67
2022/04/15 08:21:12;;;;;;;12.40;7.22;;;11.70;99.90;;;;;;5014318;28;20048;-67
2022/04/15 08:23:38;;;;;;;11.48;7.70;;;11.70;99.90;;;;;;5022088;28;20383;-67
2022/04/15 08:26:03;;;;;;;17.67;8.57;;;11.70;99.90;;;;;;5024758;28;20041;-67
2022/04/15 08:28:29;;;;;;;20.05;8.07;;;11.90;99.90;;;;;;5022984;28;20137;-67
2022/04/15 08:30:54;;;;;;;12.30;6.82;;;11.80;99.90;;;;;;5032620;28;20049;-67
2022/04/15 08:33:21;;;;;;;14.63;9.05;;;11.70;99.90;;;;;;5027039;28;20378;-67
2022/04/15 08:35:47;;;;;;;14.15;7.68;;;11.80;99.90;;;;;;5024051;28;20068;-67
2022/04/15 08:38:13;;;;;;;19.33;8.85;;;11.70;99.90;;;;;;5024532;28;20046;-67
2022/04/15 08:40:45;;;;;;;16.52;9.18;;;11.70;99.90;;;;;;5031173;28;20167;-67
2022/04/15 08:43:11;;;;;;;16.30;8.23;;;11.60;99.90;;;;;;5022183;28;20144;-67
2022/04/15 08:45:41;;;;;;;10.10;6.53;;;11.50;99.90;;;;;;5025298;28;20491;-67
2022/04/15 08:48:07;;;;;;;12.07;7.65;;;11.60;99.90;;;;;;5031245;28;20043;-67
2022/04/15 08:50:32;;;;;;;17.20;8.77;;;11.70;99.90;;;;;;5022288;28;20386;-67
2022/04/15 08:52:59;;;;;;;14.25;7.53;;;11.70;99.90;;;;;;5016533;28;20107;-67
2022/04/15 08:55:27;;;;;;;14.38;6.47;;;11.70;99.90;;;;;;5017616;28;20057;-67
2022/04/15 08:57:54;;;;;;;10.63;6.25;;;11.70;99.90;;;;;;5018778;28;20041;-67
2022/04/15 09:00:20;;;;;;;10.80;6.18;;;11.60;99.90;;;;;;5030356;28;20445;-67
2022/04/15 09:02:47;;;;;;;13.38;6.78;;;11.80;99.90;;;;;;5028043;28;20041;-67
2022/04/15 09:05:17;;;;;;;10.82;5.50;;;11.70;99.90;;;;;;5012081;28;20052;-68
2022/04/15 09:07:43;;;;;;;17.25;6.22;;;11.70;99.90;;;;;;5010787;28;20041;-68
2022/04/15 09:10:11;;;;;;;10.75;5.18;;;11.70;99.90;;;;;;5012439;28;20441;-68
2022/04/15 09:12:37;;;;;;;11.95;4.53;;;11.70;99.90;;;;;;5011825;28;20038;-68
2022/04/15 09:15:06;;;;;;;11.05;5.35;;;11.90;99.90;;;;;;5024249;28;20054;-67
2022/04/15 09:17:33;;;;;;;8.27;4.38;;;12.00;99.90;;;;;;5018745;28;20085;-68
2022/04/15 09:20:00;;;;;;;17.70;5.95;;;12.10;99.90;;;;;;5015655;28;20041;-68
2022/04/15 09:22:26;;;;;;;9.10;4.82;;;12.20;99.90;;;;;;5030675;28;20056;-68
2022/04/15 09:24:52;;;;;;;14.63;4.97;;;12.20;99.90;;;;;;5027729;28;20056;-68
2022/04/15 09:27:19;;;;;;;11.50;4.70;;;12.50;99.90;;;;;;5012386;28;20042;-68
2022/04/15 09:29:46;;;;;;;12.77;6.30;;;13.00;99.90;;;;;;5009969;28;20046;-68
2022/04/15 09:32:16;;;;;;;7.80;4.40;;;13.80;99.90;;;;;;5011279;28;20054;-68
2022/04/15 09:34:54;;;;;;;11.13;5.97;;;14.20;99.90;;;;;;5021440;28;20042;-68
2022/04/15 09:37:21;;;;;;;18.17;7.07;;;14.10;99.90;;;;;;5029653;28;20057;-68
2022/04/15 09:40:12;;;;;;;9.88;6.72;;;14.10;99.90;;;;;;5028993;28;20045;-68
2022/04/15 09:42:44;;;;;;;17.90;7.05;;;13.70;99.90;;;;;;5028779;28;20065;-68
2022/04/15 09:45:20;;;;;;;7.97;4.63;;;13.50;99.90;;;;;;5016182;28;20469;-68
2022/04/15 09:48:01;;;;;;;10.48;4.97;;;13.10;99.90;;;;;;5010722;28;20092;-68
2022/04/15 09:50:41;;;;;;;16.15;6.18;;;12.90;99.90;;;;;;5019555;28;20049;-68
2022/04/15 09:53:16;;;;;;;9.15;4.93;;;12.90;99.90;;;;;;5027417;28;20051;-68
2022/04/15 09:55:50;;;;;;;12.82;4.80;;;13.00;99.90;;;;;;5030228;28;20401;-68
2022/04/15 09:58:21;;;;;;;10.15;4.97;;;13.00;99.90;;;;;;5019693;28;20038;-68
2022/04/15 10:00:51;;;;;;;6.05;4.07;;;12.80;99.90;;;;;;5020676;28;20374;-68
2022/04/15 10:03:23;;;;;;;7.90;4.60;;;12.90;99.90;;;;;;5030095;28;20374;-68
2022/04/15 10:05:50;;;;;;;11.02;4.90;;;12.80;99.90;;;;;;5024062;28;20057;-68
2022/04/15 10:08:19;;;;;;;9.75;4.32;;;12.90;99.90;;;;;;5012486;28;20068;-68
2022/04/15 10:10:45;;;;;;;9.05;5.45;;;12.90;99.90;;;;;;5024491;28;20054;-67
2022/04/15 10:13:13;;;;;;;5.35;3.67;;;13.30;99.90;;;;;;5029658;28;20041;-67
2022/04/15 10:15:39;;;;;;;5.95;3.22;;;13.50;99.90;;;;;;5013548;28;20041;-67
2022/04/15 10:18:06;;;;;;;5.30;3.55;;;13.60;99.90;;;;;;5010548;28;20042;-67
2022/04/15 10:20:32;;;;;;;8.55;3.60;;;13.60;99.90;;;;;;5026547;28;20060;-68
2022/04/15 10:23:03;;;;;;;5.95;3.47;;;13.50;99.90;;;;;;5026227;28;20124;-67
2022/04/15 10:25:30;;;;;;;5.25;3.03;;;13.50;99.90;;;;;;5010040;28;20088;-67
2022/04/15 10:28:11;;;;;;;5.20;3.53;;;13.60;99.90;;;;;;5019631;28;20048;-67
2022/04/15 10:30:38;;;;;;;5.88;3.05;;;13.90;99.90;;;;;;5015468;28;20057;-67
2022/04/15 10:33:04;;;;;;;5.47;3.67;;;14.00;99.90;;;;;;5009934;28;20046;-67
2022/04/15 10:35:32;;;;;;;7.90;2.90;;;14.50;99.90;;;;;;5025146;28;20045;-67
2022/04/15 10:38:10;;;;;;;5.10;2.65;;;15.20;99.90;;;;;;5014961;28;20080;-67
2022/04/15 10:40:37;;;;;;;6.53;3.10;;;15.40;99.90;;;;;;5009666;28;20050;-67
2022/04/15 10:43:22;;;;;;;5.68;3.33;;;15.40;99.90;;;;;;5008070;28;20045;-67
2022/04/15 10:45:51;;;;;;;7.18;3.67;;;15.10;99.90;;;;;;5014370;28;20081;-68
2022/04/15 10:48:30;;;;;;;6.72;3.47;;;14.90;99.90;;;;;;5012713;28;20562;-68
2022/04/15 10:50:56;;;;;;;4.90;3.00;;;14.90;99.90;;;;;;5029811;28;20139;-68
2022/04/15 10:53:23;;;;;;;6.35;3.50;;;14.70;99.90;;;;;;5028786;28;20038;-68
2022/04/15 10:55:52;;;;;;;4.32;2.95;;;15.40;99.90;;;;;;5010187;28;20054;-67
2022/04/15 10:58:18;;;;;;;7.85;3.30;;;15.70;99.90;;;;;;5021008;28;20050;-67
2022/04/15 11:03:32;;;;;;;6.18;3.13;;;16.10;99.90;;;;;;5029591;28;20050;-67
2022/04/15 11:05:59;;;;;;;5.50;3.22;;;16.30;99.90;;;;;;5028437;28;20506;-67
2022/04/15 11:08:27;;;;;;;5.68;4.28;;;15.90;99.90;;;;;;5028829;28;20419;-67
2022/04/15 11:10:55;;;;;;;9.68;4.15;;;15.60;99.90;;;;;;5028560;28;20513;-68
2022/04/15 11:13:29;;;;;;;5.45;3.40;;;15.30;99.90;;;;;;5013988;28;20460;-67
2022/04/15 11:16:15;;;;;;;5.35;3.47;;;15.30;99.90;;;;;;5009420;28;20045;-67
2022/04/15 11:18:53;;;;;;;6.35;3.72;;;15.00;99.90;;;;;;5010360;28;20528;-65
2022/04/15 11:21:35;;;;;;;6.03;3.78;;;15.10;99.90;;;;;;5015478;28;20047;-67
2022/04/15 11:24:12;;;;;;;7.88;3.95;;;15.00;99.90;;;;;;5015718;28;20037;-67
2022/04/15 11:26:40;;;;;;;7.60;4.80;;;14.90;99.90;;;;;;5012961;28;20626;-67
2022/04/15 11:29:07;;;;;;;6.75;4.03;;;14.80;99.90;;;;;;5032283;28;20499;-67
2022/04/15 11:31:46;;;;;;;10.55;4.90;;;14.70;99.90;;;;;;5029943;28;20252;-67
2022/04/15 11:34:17;;;;;;;10.52;4.97;;;14.50;99.90;;;;;;5027001;28;20042;-67
2022/04/15 11:36:43;;;;;;;8.55;4.68;;;14.50;99.90;;;;;;5011611;28;20049;-67
2022/04/15 11:39:12;;;;;;;8.65;5.00;;;14.40;99.90;;;;;;5024978;28;20047;-67
2022/04/15 11:41:52;;;;;;;9.85;4.30;;;14.40;99.90;;;;;;5032058;28;20046;-67
2022/04/15 11:44:19;;;;;;;6.20;3.78;;;14.50;99.90;;;;;;5032311;28;20144;-67
2022/04/15 11:46:48;;;;;;;10.20;4.70;;;14.30;99.90;;;;;;5018656;28;20046;-67
2022/04/15 11:49:15;;;;;;;8.63;4.82;;;14.30;99.90;;;;;;5012888;28;20092;-67
2022/04/15 11:51:45;;;;;;;7.32;4.03;;;14.30;99.90;;;;;;5012797;28;20052;-67
2022/04/15 11:54:12;;;;;;;6.47;4.15;;;14.40;99.90;;;;;;5017129;28;20073;-67
2022/04/15 11:56:39;;;;;;;7.13;4.07;;;14.40;99.90;;;;;;5026147;28;20045;-67
2022/04/15 11:59:05;;;;;;;8.85;4.22;;;14.50;99.90;;;;;;5021866;28;20521;-67
2022/04/15 12:01:31;;;;;;;14.25;5.10;;;14.40;99.90;;;;;;5011152;28;20058;-67
2022/04/15 12:03:58;;;;;;;8.07;5.32;;;14.40;99.90;;;;;;5011523;28;20050;-67
2022/04/15 12:06:25;;;;;;;9.10;4.95;;;14.20;99.90;;;;;;5011664;28;20054;-67
2022/04/15 12:08:52;;;;;;;7.50;4.88;;;14.10;99.90;;;;;;5011655;28;20054;-67
2022/04/15 12:11:23;;;;;;;8.20;3.90;;;14.10;99.90;;;;;;5011937;28;20041;-67
2022/04/15 12:13:57;;;;;;;13.07;4.50;;;14.10;99.90;;;;;;5012349;28;20512;-67
2022/04/15 12:16:23;;;;;;;12.55;5.85;;;15.00;99.90;;;;;;5020585;28;20049;-67
2022/04/15 12:18:49;;;;;;;13.27;5.70;;;15.50;99.90;;;;;;5031229;28;20049;-67
2022/04/15 12:21:16;;;;;;;14.70;6.25;;;15.20;99.90;;;;;;5015924;28;20052;-67
2022/04/15 12:24:19;;;;;;;16.10;7.57;;;15.40;99.90;;;;;;5015287;28;20048;-67
2022/04/15 12:26:46;;;;;;;19.17;6.95;;;15.10;99.90;;;;;;5019602;28;21088;-67
2022/04/15 12:32:17;;;;;;;11.70;5.55;;;14.70;99.90;;;;;;5029711;28;20091;-67
2022/04/15 12:34:47;;;;;;;15.15;6.07;;;14.60;99.90;;;;;;5030385;28;20049;-67
2022/04/15 12:37:44;;;;;;;12.82;6.30;;;14.50;99.90;;;;;;5023795;28;20038;-67
2022/04/15 12:40:30;;;;;;;5.28;3.75;;;14.60;99.90;;;;;;5025843;28;20084;-67
2022/04/15 12:43:07;;;;;;;6.60;4.25;;;14.20;99.90;;;;;;5031758;28;20052;-67
2022/04/15 12:45:50;;;;;;;8.95;5.07;;;14.10;99.90;;;;;;5017676;28;20044;-67
2022/04/15 12:48:15;;;;;;;10.32;4.63;;;14.50;99.90;;;;;;5025380;28;20050;-67
2022/04/15 12:50:44;;;;;;;6.35;4.43;;;14.80;99.90;;;;;;5009346;28;20045;-67
2022/04/15 12:53:16;;;;;;;10.13;6.03;;;14.70;99.90;;;;;;5010244;28;20046;-67
2022/04/15 12:55:41;;;;;;;8.32;5.50;;;14.50;99.90;;;;;;5010644;28;20057;-67